createdAt,value
2023-04-09T00:01:59.028Z,42.38
2023-04-09T00:04:29.108Z,43.40
2023-04-09T00:06:59.093Z,41.97
2023-04-09T00:09:29.056Z,41.83
2023-04-09T00:12:02.284Z,42.45
2023-04-09T00:14:32.541Z,41.85
2023-04-09T00:17:02.493Z,41.17
2023-04-09T00:19:33.391Z,40.78
2023-04-09T00:22:03.362Z,41.42
2023-04-09T00:24:33.314Z,42.75
2023-04-09T00:27:06.022Z,43.15
2023-04-09T00:29:35.963Z,44.22
2023-04-09T00:32:05.976Z,43.45
2023-04-09T00:34:35.999Z,43.00
2023-04-09T00:37:06.457Z,43.20
2023-04-09T00:39:37.179Z,42.05
2023-04-09T00:42:09.714Z,41.97
2023-04-09T00:44:39.655Z,43.35
2023-04-09T00:47:09.623Z,42.85
2023-04-09T00:49:39.594Z,42.63
2023-04-09T00:52:10.474Z,42.95
2023-04-09T00:54:40.606Z,40.97
2023-04-09T00:57:13.324Z,40.15
2023-04-09T00:59:43.444Z,40.47
2023-04-09T01:02:13.879Z,38.40
2023-04-09T01:04:46.358Z,36.72
2023-04-09T01:07:25.128Z,39.90
2023-04-09T01:10:03.476Z,41.42
2023-04-09T01:12:45.648Z,40.45
2023-04-09T01:15:21.852Z,40.88
2023-04-09T01:17:57.235Z,41.10
2023-04-09T01:20:37.878Z,40.25
2023-04-09T01:23:19.697Z,41.03
2023-04-09T01:26:06.161Z,40.80
2023-04-09T01:28:45.737Z,40.65
2023-04-09T01:31:18.610Z,41.05
2023-04-09T01:33:49.773Z,42.60
2023-04-09T01:36:20.653Z,42.45
2023-04-09T01:38:54.118Z,41.13
2023-04-09T01:41:25.348Z,41.83
2023-04-09T01:44:01.872Z,41.75
2023-04-09T01:46:33.017Z,39.85
2023-04-09T01:49:03.673Z,38.50
2023-04-09T01:51:34.992Z,38.33
2023-04-09T01:54:05.008Z,37.75
2023-04-09T01:56:44.304Z,41.67
2023-04-09T01:59:17.634Z,39.67
2023-04-09T02:01:50.391Z,37.22
2023-04-09T02:04:27.196Z,36.97
2023-04-09T02:07:02.308Z,38.20
2023-04-09T02:09:34.838Z,38.42
2023-04-09T02:12:08.740Z,38.03
2023-04-09T02:14:43.351Z,38.97
2023-04-09T02:19:47.963Z,38.25
2023-04-09T02:22:19.380Z,38.35
2023-04-09T02:24:49.963Z,36.83
2023-04-09T02:27:20.098Z,37.58
2023-04-09T02:29:53.501Z,37.95
2023-04-09T02:32:23.465Z,39.95
2023-04-09T02:34:53.458Z,41.17
2023-04-09T02:37:23.533Z,40.97
2023-04-09T02:39:53.500Z,39.70
2023-04-09T02:42:23.723Z,41.50
2023-04-09T02:44:56.251Z,41.20
2023-04-09T02:47:27.357Z,42.50
2023-04-09T02:49:57.355Z,42.47
2023-04-09T02:52:27.300Z,41.65
2023-04-09T02:54:57.480Z,41.10
2023-04-09T02:57:27.507Z,38.78
2023-04-09T03:00:00.047Z,36.88
2023-04-09T03:02:30.087Z,36.05
2023-04-09T03:05:00.167Z,37.25
2023-04-09T03:07:30.110Z,37.40
2023-04-09T03:10:00.082Z,36.45
2023-04-09T03:12:30.069Z,35.95
2023-04-09T03:15:02.606Z,35.95
2023-04-09T03:17:32.593Z,35.25
2023-04-09T03:20:02.722Z,35.72
2023-04-09T03:22:32.655Z,35.03
2023-04-09T03:25:02.584Z,34.08
2023-04-09T03:27:32.581Z,34.78
2023-04-09T03:30:05.138Z,33.83
2023-04-09T03:32:35.115Z,35.85
2023-04-09T03:35:05.090Z,35.45
2023-04-09T03:37:35.168Z,36.70
2023-04-09T03:40:05.248Z,36.05
2023-04-09T03:42:35.852Z,37.17
2023-04-09T03:45:10.020Z,36.03
2023-04-09T03:47:40.048Z,37.25
2023-04-09T03:50:11.580Z,37.65
2023-04-09T03:52:41.517Z,37.10
2023-04-09T03:55:13.221Z,36.90
2023-04-09T03:57:43.187Z,34.55
2023-04-09T04:00:16.368Z,35.55
2023-04-09T04:02:46.466Z,36.38
2023-04-09T04:05:16.644Z,35.53
2023-04-09T04:07:46.613Z,35.08
2023-04-09T04:10:16.955Z,39.30
2023-04-09T04:12:46.973Z,38.28
2023-04-09T04:15:20.307Z,36.58
2023-04-09T04:17:50.294Z,36.67
2023-04-09T04:20:20.566Z,34.83
2023-04-09T04:22:50.571Z,38.38
2023-04-09T04:25:20.728Z,35.40
2023-04-09T04:27:50.672Z,41.05
2023-04-09T04:30:23.593Z,37.75
2023-04-09T04:32:53.675Z,36.85
2023-04-09T04:35:25.391Z,36.80
2023-04-09T04:37:55.440Z,37.10
2023-04-09T04:40:25.539Z,38.17
2023-04-09T04:42:55.532Z,37.67
2023-04-09T04:45:28.236Z,36.53
2023-04-09T04:47:58.256Z,38.53
2023-04-09T04:50:28.325Z,38.92
2023-04-09T04:52:58.320Z,39.92
2023-04-09T04:55:28.392Z,38.17
2023-04-09T04:57:58.345Z,39.20
2023-04-09T05:00:31.128Z,39.00
2023-04-09T05:03:01.200Z,39.58
2023-04-09T05:05:31.228Z,39.95
2023-04-09T05:08:01.467Z,42.85
2023-04-09T05:10:31.452Z,43.72
2023-04-09T05:13:01.430Z,40.60
2023-04-09T05:15:33.996Z,42.47
2023-04-09T05:18:03.977Z,41.88
2023-04-09T05:20:33.985Z,40.10
2023-04-09T05:23:04.153Z,41.25
2023-04-09T05:25:34.092Z,38.20
2023-04-09T05:28:04.037Z,34.20
2023-04-09T05:30:36.604Z,32.25
2023-04-09T05:33:06.726Z,34.03
2023-04-09T05:35:36.673Z,34.92
2023-04-09T05:38:06.660Z,33.53
2023-04-09T05:40:36.800Z,33.63
2023-04-09T05:43:06.836Z,35.60
2023-04-09T05:45:39.452Z,37.00
2023-04-09T05:48:09.844Z,35.88
2023-04-09T05:50:51.508Z,36.78
2023-04-09T05:53:25.207Z,36.53
2023-04-09T05:55:55.294Z,37.53
2023-04-09T05:58:25.289Z,37.08
2023-04-09T06:00:57.827Z,37.28
2023-04-09T06:03:28.980Z,36.28
2023-04-09T06:05:59.086Z,37.72
2023-04-09T06:08:29.063Z,37.67
2023-04-09T06:10:59.036Z,39.10
2023-04-09T06:13:29.092Z,38.85
2023-04-09T06:16:01.736Z,41.45
2023-04-09T06:18:31.712Z,41.08
2023-04-09T06:21:06.213Z,40.63
2023-04-09T06:23:36.922Z,39.38
2023-04-09T06:26:06.978Z,40.40
2023-04-09T06:28:36.940Z,40.97
2023-04-09T06:31:09.728Z,41.28
2023-04-09T06:33:39.689Z,40.65
2023-04-09T06:36:10.852Z,40.38
2023-04-09T06:38:40.853Z,38.67
2023-04-09T06:41:12.890Z,42.28
2023-04-09T06:43:42.902Z,38.20
2023-04-09T06:46:17.646Z,37.70
2023-04-09T06:51:17.650Z,35.55
2023-04-09T06:53:48.400Z,38.75
2023-04-09T06:56:18.487Z,36.45
2023-04-09T06:58:48.443Z,36.85
2023-04-09T07:01:21.313Z,36.50
2023-04-09T07:03:54.338Z,38.25
2023-04-09T07:06:24.422Z,33.78
2023-04-09T07:08:54.727Z,41.70
2023-04-09T07:11:25.020Z,36.58
2023-04-09T07:13:56.975Z,37.03
2023-04-09T07:16:29.562Z,35.95
2023-04-09T07:18:59.637Z,37.10
2023-04-09T07:21:29.589Z,35.38
2023-04-09T07:23:59.554Z,35.55
2023-04-09T07:26:29.956Z,35.22
2023-04-09T07:28:59.894Z,31.67
2023-04-09T07:31:35.279Z,32.47
2023-04-09T07:34:05.887Z,33.35
2023-04-09T07:36:35.839Z,32.90
2023-04-09T07:39:05.777Z,32.67
2023-04-09T07:41:36.025Z,30.80
2023-04-09T07:44:06.535Z,32.55
2023-04-09T07:46:40.001Z,31.65
2023-04-09T07:49:10.034Z,32.33
2023-04-09T07:51:40.066Z,31.48
2023-04-09T07:54:10.018Z,29.75
2023-04-09T07:56:39.960Z,30.25
2023-04-09T07:59:09.980Z,31.70
2023-04-09T08:01:42.640Z,31.33
2023-04-09T08:04:13.546Z,31.45
2023-04-09T08:06:46.888Z,31.92
2023-04-09T08:09:16.812Z,32.00
2023-04-09T08:11:47.623Z,31.55
2023-04-09T08:14:19.496Z,31.27
2023-04-09T08:16:53.270Z,30.38
2023-04-09T08:19:23.533Z,31.40
2023-04-09T08:21:53.487Z,29.90
2023-04-09T08:24:23.464Z,31.00
2023-04-09T08:26:53.494Z,29.92
2023-04-09T08:29:23.441Z,29.98
2023-04-09T08:31:56.451Z,30.25
2023-04-09T08:34:26.448Z,28.38
2023-04-09T08:36:57.115Z,29.50
2023-04-09T08:39:27.088Z,26.38
2023-04-09T08:41:59.803Z,27.95
2023-04-09T08:44:30.127Z,27.08
2023-04-09T08:47:03.660Z,27.98
2023-04-09T08:49:33.612Z,28.80
2023-04-09T08:52:03.919Z,27.60
2023-04-09T08:54:33.924Z,28.27
2023-04-09T08:57:08.356Z,29.50
2023-04-09T08:59:38.383Z,29.10
2023-04-09T09:02:14.132Z,27.30
2023-04-09T09:04:48.988Z,25.50
2023-04-09T09:09:58.826Z,27.25
2023-04-09T09:12:36.687Z,28.52
2023-04-09T09:15:08.383Z,28.00
2023-04-09T09:17:57.711Z,27.83
2023-04-09T09:20:29.328Z,28.02
2023-04-09T09:23:00.140Z,27.27
2023-04-09T09:25:30.912Z,26.42
2023-04-09T09:28:11.376Z,26.50
2023-04-09T09:30:42.888Z,26.50
2023-04-09T09:33:15.860Z,25.88
2023-04-09T09:35:54.653Z,27.63
2023-04-09T09:38:24.721Z,27.13
2023-04-09T09:40:54.920Z,26.95
2023-04-09T09:43:25.157Z,25.85
2023-04-09T09:45:56.458Z,25.63
2023-04-09T09:48:29.022Z,26.77
2023-04-09T09:50:59.113Z,27.00
2023-04-09T09:53:30.499Z,30.20
2023-04-09T09:56:03.719Z,27.52
2023-04-09T09:58:40.407Z,39.13
2023-04-09T10:01:13.527Z,30.13
2023-04-09T10:03:49.064Z,28.17
2023-04-09T10:06:19.178Z,28.98
2023-04-09T10:08:53.006Z,28.83
2023-04-09T10:11:23.732Z,28.73
2023-04-09T10:13:59.658Z,26.20
2023-04-09T10:16:31.435Z,28.48
2023-04-09T10:19:05.290Z,27.17
2023-04-09T10:21:44.851Z,27.17
2023-04-09T10:24:16.151Z,26.63
2023-04-09T10:26:47.849Z,27.17
2023-04-09T10:29:19.320Z,27.88
2023-04-09T10:31:57.057Z,34.00
2023-04-09T10:34:30.840Z,38.95
2023-04-09T10:37:02.932Z,38.42
2023-04-09T10:39:36.246Z,37.28
2023-04-09T10:42:17.216Z,35.35
2023-04-09T10:44:47.227Z,28.40
2023-04-09T10:47:35.984Z,30.98
2023-04-09T10:50:24.132Z,26.70
2023-04-09T10:52:57.546Z,26.45
2023-04-09T10:55:38.758Z,26.55
2023-04-09T10:58:12.266Z,25.75
2023-04-09T11:00:45.181Z,26.40
2023-04-09T11:03:27.751Z,28.63
2023-04-09T11:06:06.217Z,27.77
2023-04-09T11:08:38.148Z,25.38
2023-04-09T11:11:08.600Z,24.65
2023-04-09T11:13:38.564Z,23.48
2023-04-09T11:16:09.438Z,24.85
2023-04-09T11:18:39.643Z,24.55
2023-04-09T11:21:13.684Z,24.35
2023-04-09T11:23:44.086Z,24.95
2023-04-09T11:26:14.137Z,23.50
2023-04-09T11:28:46.097Z,24.80
2023-04-09T11:31:16.880Z,23.38
2023-04-09T11:33:49.389Z,23.45
2023-04-09T11:36:21.955Z,24.55
2023-04-09T11:38:52.938Z,24.08
2023-04-09T11:41:23.095Z,24.95
2023-04-09T11:43:55.266Z,23.05
2023-04-09T11:46:26.373Z,23.33
2023-04-09T11:48:57.101Z,23.77
2023-04-09T11:51:31.751Z,22.73
2023-04-09T11:54:05.005Z,22.40
2023-04-09T11:56:36.001Z,22.60
2023-04-09T11:59:06.775Z,23.15
2023-04-09T12:01:37.291Z,24.33
2023-04-09T12:04:08.072Z,22.42
2023-04-09T12:06:43.772Z,23.88
2023-04-09T12:09:14.378Z,22.30
2023-04-09T12:11:47.797Z,22.02
2023-04-09T12:14:19.893Z,21.40
2023-04-09T12:16:54.564Z,21.08
2023-04-09T12:19:28.796Z,21.42
2023-04-09T12:22:01.329Z,21.70
2023-04-09T12:24:31.428Z,22.80
2023-04-09T12:27:01.752Z,22.20
2023-04-09T12:29:33.421Z,21.15
2023-04-09T12:32:03.544Z,18.80
2023-04-09T12:34:33.561Z,18.73
2023-04-09T12:37:06.061Z,22.55
2023-04-09T12:39:36.515Z,21.67
2023-04-09T12:42:06.669Z,14.85
2023-04-09T12:44:37.409Z,21.20
2023-04-09T12:47:08.024Z,20.58
2023-04-09T12:49:38.776Z,21.30
2023-04-09T12:52:12.539Z,19.40
2023-04-09T12:54:42.881Z,22.40
2023-04-09T12:57:12.829Z,21.00
2023-04-09T12:59:42.944Z,21.48
2023-04-09T13:02:13.696Z,21.67
2023-04-09T13:04:44.576Z,16.67
2023-04-09T13:07:19.275Z,15.20
2023-04-09T13:09:50.508Z,19.80
2023-04-09T13:12:21.666Z,21.67
2023-04-09T13:14:52.203Z,19.25
2023-04-09T13:17:22.357Z,19.17
2023-04-09T13:19:53.830Z,14.25
2023-04-09T13:22:26.420Z,19.67
2023-04-09T13:24:56.462Z,12.13
2023-04-09T13:27:26.600Z,16.40
2023-04-09T13:29:56.563Z,8.02
2023-04-09T13:32:26.876Z,19.10
2023-04-09T13:34:58.148Z,20.48
2023-04-09T13:37:30.674Z,17.90
2023-04-09T13:40:00.660Z,10.23
2023-04-09T13:42:31.596Z,15.88
2023-04-09T13:45:01.692Z,16.70
2023-04-09T13:47:31.679Z,21.73
2023-04-09T13:50:01.658Z,16.77
2023-04-09T13:52:35.013Z,16.52
2023-04-09T13:55:05.069Z,16.20
2023-04-09T13:57:35.073Z,21.20
2023-04-09T14:00:05.949Z,22.10
2023-04-09T14:02:35.989Z,16.35
2023-04-09T14:05:06.416Z,14.38
2023-04-09T14:07:38.972Z,13.45
2023-04-09T14:10:11.248Z,13.68
2023-04-09T14:12:41.210Z,15.52
2023-04-09T14:15:12.768Z,14.88
2023-04-09T14:17:43.024Z,14.93
2023-04-09T14:20:13.599Z,12.52
2023-04-09T14:22:49.349Z,17.98
2023-04-09T14:25:19.638Z,14.02
2023-04-09T14:27:49.614Z,17.42
2023-04-09T14:30:20.994Z,17.17
2023-04-09T14:32:51.042Z,15.82
2023-04-09T14:35:21.143Z,13.35
2023-04-09T14:37:53.762Z,15.80
2023-04-09T14:40:23.702Z,14.20
2023-04-09T14:42:53.684Z,14.32
2023-04-09T14:45:23.729Z,15.82
2023-04-09T14:47:53.817Z,12.43
2023-04-09T14:50:24.029Z,16.70
2023-04-09T14:52:56.648Z,14.75
2023-04-09T14:55:26.848Z,15.63
2023-04-09T14:57:57.013Z,16.88
2023-04-09T15:00:27.070Z,15.32
2023-04-09T15:02:57.388Z,15.68
2023-04-09T15:05:27.437Z,13.50
2023-04-09T15:08:01.307Z,11.65
2023-04-09T15:10:31.304Z,15.53
2023-04-09T15:13:01.296Z,16.70
2023-04-09T15:15:31.603Z,13.32
2023-04-09T15:18:05.942Z,13.35
2023-04-09T15:20:39.768Z,15.30
2023-04-09T15:23:12.752Z,12.35
2023-04-09T15:25:42.960Z,14.30
2023-04-09T15:28:14.610Z,14.90
2023-04-09T15:30:44.645Z,14.45
2023-04-09T15:33:16.204Z,11.52
2023-04-09T15:35:46.195Z,10.98
2023-04-09T15:38:21.574Z,6.07
2023-04-09T15:40:51.500Z,15.60
2023-04-09T15:43:21.846Z,14.38
2023-04-09T15:45:52.591Z,14.02
2023-04-09T15:48:22.805Z,15.00
2023-04-09T15:50:52.742Z,14.93
2023-04-09T15:53:29.090Z,17.25
2023-04-09T15:55:59.095Z,15.38
2023-04-09T15:58:29.161Z,12.73
2023-04-09T16:00:59.317Z,14.05
2023-04-09T16:03:29.514Z,12.02
2023-04-09T16:06:01.802Z,12.23
2023-04-09T16:08:34.361Z,12.80
2023-04-09T16:11:04.307Z,12.40
2023-04-09T16:13:34.397Z,14.73
2023-04-09T16:16:04.479Z,9.93
2023-04-09T16:18:34.467Z,12.90
2023-04-09T16:21:04.561Z,11.98
2023-04-09T16:23:37.244Z,13.10
2023-04-09T16:26:07.896Z,13.02
2023-04-09T16:28:37.866Z,11.57
2023-04-09T16:31:08.108Z,11.43
2023-04-09T16:33:38.068Z,13.30
2023-04-09T16:36:09.264Z,13.27
2023-04-09T16:38:42.066Z,12.45
2023-04-09T16:41:12.067Z,10.68
2023-04-09T16:43:42.020Z,13.57
2023-04-09T16:46:12.020Z,13.85
2023-04-09T16:48:42.820Z,12.18
2023-04-09T16:51:12.814Z,12.57
2023-04-09T16:53:45.730Z,13.55
2023-04-09T16:56:15.763Z,13.10
2023-04-09T16:58:46.153Z,16.80
2023-04-09T17:01:16.216Z,24.10
2023-04-09T17:03:46.309Z,18.48
2023-04-09T17:06:16.319Z,12.30
2023-04-09T17:08:49.180Z,15.05
2023-04-09T17:11:21.272Z,16.45
2023-04-09T17:13:51.241Z,17.27
2023-04-09T17:16:22.072Z,16.52
2023-04-09T17:18:52.348Z,17.25
2023-04-09T17:21:22.644Z,15.52
2023-04-09T17:23:55.186Z,17.00
2023-04-09T17:26:25.134Z,16.52
2023-04-09T17:28:55.306Z,22.10
2023-04-09T17:31:26.873Z,22.67
2023-04-09T17:33:56.909Z,19.98
2023-04-09T17:36:27.897Z,21.27
2023-04-09T17:39:00.774Z,21.33
2023-04-09T17:41:31.692Z,19.75
2023-04-09T17:44:01.713Z,22.67
2023-04-09T17:46:31.714Z,22.85
2023-04-09T17:49:01.770Z,22.58
2023-04-09T17:51:31.727Z,20.50
2023-04-09T17:54:04.722Z,20.88
2023-04-09T17:56:38.999Z,20.92
2023-04-09T17:59:09.370Z,19.63
2023-04-09T18:01:39.459Z,25.30
2023-04-09T18:04:09.830Z,21.98
2023-04-09T18:06:39.967Z,21.83
2023-04-09T18:09:12.962Z,18.95
2023-04-09T18:11:42.936Z,19.02
2023-04-09T18:14:13.023Z,23.17
2023-04-09T18:16:43.385Z,32.03
2023-04-09T18:19:13.590Z,30.77
2023-04-09T18:21:43.614Z,33.83
2023-04-09T18:24:16.154Z,43.22
2023-04-09T18:26:46.075Z,40.60
2023-04-09T18:29:16.007Z,32.53
2023-04-09T18:31:46.289Z,28.42
2023-04-09T18:34:16.932Z,26.33
2023-04-09T18:36:47.446Z,25.83
2023-04-09T18:39:20.798Z,24.42
2023-04-09T18:41:51.227Z,24.30
2023-04-09T18:44:21.330Z,23.60
2023-04-09T18:46:51.424Z,24.50
2023-04-09T18:49:21.469Z,24.17
2023-04-09T18:51:51.408Z,23.80
2023-04-09T18:54:24.837Z,25.45
2023-04-09T18:56:54.828Z,23.98
2023-04-09T18:59:24.771Z,26.58
2023-04-09T19:01:55.594Z,27.10
2023-04-09T19:04:28.168Z,24.83
2023-04-09T19:06:58.291Z,29.48
2023-04-09T19:09:30.951Z,27.85
2023-04-09T19:12:01.665Z,28.13
2023-04-09T19:14:31.680Z,32.20
2023-04-09T19:17:02.521Z,31.90
2023-04-09T19:19:32.638Z,32.15
2023-04-09T19:22:02.776Z,32.35
2023-04-09T19:24:35.789Z,32.72
2023-04-09T19:27:10.000Z,31.17
2023-04-09T19:29:40.031Z,31.00
2023-04-09T19:32:12.880Z,31.10
2023-04-09T19:34:42.887Z,30.45
2023-04-09T19:37:15.207Z,30.77
2023-04-09T19:39:47.748Z,32.38
2023-04-09T19:42:17.656Z,31.85
2023-04-09T19:44:47.960Z,31.50
2023-04-09T19:47:17.975Z,32.53
2023-04-09T19:49:48.292Z,31.10
2023-04-09T19:52:18.234Z,31.60
2023-04-09T19:54:51.200Z,32.63
2023-04-09T19:57:21.696Z,32.10
2023-04-09T19:59:52.466Z,28.63
2023-04-09T20:02:22.579Z,29.40
2023-04-09T20:04:54.558Z,30.70
2023-04-09T20:07:24.501Z,29.30
2023-04-09T20:09:57.729Z,29.40
2023-04-09T20:12:29.665Z,29.48
2023-04-09T20:14:59.915Z,29.70
2023-04-09T20:17:29.874Z,29.08
2023-04-09T20:19:59.841Z,30.52
2023-04-09T20:22:31.150Z,29.48
2023-04-09T20:25:03.684Z,29.77
2023-04-09T20:27:33.930Z,29.50
2023-04-09T20:30:03.998Z,29.45
2023-04-09T20:32:33.959Z,29.02
2023-04-09T20:35:03.941Z,30.13
2023-04-09T20:37:33.885Z,29.73
2023-04-09T20:40:06.933Z,28.25
2023-04-09T20:42:36.915Z,28.05
2023-04-09T20:45:08.308Z,28.27
2023-04-09T20:47:38.403Z,29.40
2023-04-09T20:50:09.935Z,30.17
2023-04-09T20:52:39.872Z,30.23
2023-04-09T20:55:12.813Z,29.02
2023-04-09T20:57:42.767Z,31.00
2023-04-09T21:00:14.754Z,30.52
2023-04-09T21:02:44.877Z,29.95
2023-04-09T21:05:22.752Z,29.38
2023-04-09T21:07:54.456Z,28.52
2023-04-09T21:10:27.017Z,29.23
2023-04-09T21:12:56.978Z,30.00
2023-04-09T21:15:26.968Z,28.33
2023-04-09T21:17:56.942Z,29.45
2023-04-09T21:20:26.904Z,27.98
2023-04-09T21:22:57.277Z,29.20
2023-04-09T21:25:32.928Z,27.65
2023-04-09T21:28:02.877Z,30.23
2023-04-09T21:30:32.951Z,28.30
2023-04-09T21:33:05.523Z,28.00
2023-04-09T21:35:35.686Z,27.38
2023-04-09T21:38:06.131Z,28.42
2023-04-09T21:40:38.697Z,27.40
2023-04-09T21:43:09.027Z,29.65
2023-04-09T21:45:39.468Z,27.83
2023-04-09T21:48:09.939Z,28.23
2023-04-09T21:50:39.871Z,28.58
2023-04-09T21:53:09.805Z,28.10
2023-04-09T21:55:42.363Z,29.77
2023-04-09T21:58:12.301Z,31.23
2023-04-09T22:00:43.154Z,29.92
2023-04-09T22:03:13.257Z,30.63
2023-04-09T22:05:43.401Z,30.52
2023-04-09T22:08:13.661Z,29.58
2023-04-09T22:10:46.364Z,30.48
2023-04-09T22:13:16.312Z,30.50
2023-04-09T22:15:46.402Z,38.17
2023-04-09T22:18:16.497Z,42.40
2023-04-09T22:20:46.417Z,41.22
2023-04-09T22:23:16.460Z,40.53
2023-04-09T22:25:48.982Z,50.28
2023-04-09T22:28:18.939Z,46.15
2023-04-09T22:30:48.905Z,48.97
2023-04-09T22:33:18.861Z,45.33
2023-04-09T22:35:49.336Z,44.35
2023-04-09T22:38:19.358Z,39.28
2023-04-09T22:40:52.743Z,37.47
2023-04-09T22:43:22.825Z,35.83
2023-04-09T22:45:54.676Z,34.53
2023-04-09T22:48:26.059Z,34.28
2023-04-09T22:50:56.032Z,31.88
2023-04-09T22:53:26.000Z,31.13
2023-04-09T22:56:02.212Z,30.58
2023-04-09T22:58:32.237Z,31.98
2023-04-09T23:01:02.476Z,31.40
2023-04-09T23:03:32.500Z,31.45
2023-04-09T23:06:02.874Z,29.75
2023-04-09T23:08:33.093Z,30.65
2023-04-09T23:11:07.404Z,29.15
2023-04-09T23:13:37.353Z,29.98
2023-04-09T23:16:08.979Z,30.58
2023-04-09T23:18:39.865Z,30.30
2023-04-09T23:21:11.114Z,30.08
2023-04-09T23:23:41.960Z,30.63
2023-04-09T23:26:16.680Z,29.48
2023-04-09T23:31:16.447Z,29.40
2023-04-09T23:33:46.539Z,30.25
2023-04-09T23:36:16.496Z,28.85
2023-04-09T23:38:47.138Z,29.50
2023-04-09T23:41:19.650Z,28.00
2023-04-09T23:43:49.635Z,27.50
2023-04-09T23:46:19.634Z,28.20
2023-04-09T23:48:49.684Z,27.75
2023-04-09T23:51:23.560Z,27.38
2023-04-09T23:53:53.668Z,28.30
2023-04-09T23:56:26.419Z,28.42
2023-04-09T23:58:56.464Z,28.63
